KPOU/POU METAR and TAF weather

Enter ICAO airport designator
Station Type Date Time Source
KPOU METAR 2019/11/18 10:53 UTC NOAA

KPOU 181053Z AUTO 36007KT 10SM OVC018 01/M04 A2995 RMK AO2 SLP139 T00111044


Station Type Date Time Source
KPOU Decoded METAR 2019/11/18 10:53 UTC NOAA

POUGHKEEPSIE DUTCHESS CTY, NY, United States (KPOU) 41-38N 073-53W 46M
Nov 18, 2019 - 05:53 AM EST / 2019.11.18 1053 UTC
Wind: from the N (360 degrees) at 8 MPH (7 KT):0
Visibility: 10 mile(s):0
Sky conditions: overcast
Temperature: 34.0 F (1.1 C)
Windchill: 26 F (-3 C):1
Dew Point: 24.1 F (-4.4 C)
Relative Humidity: 66%
Pressure (altimeter): 29.95 in. Hg (1014 hPa)
ob: KPOU 181053Z AUTO 36007KT 10SM OVC018 01/M04 A2995 RMK AO2 SLP139 T00111044
cycle: 11

Station Type Date Time Source
KPOU TAF 2019/11/18 12:24 UTC NOAA

TAF KPOU 181121Z 1812/1912 36006KT P6SM VCSH OVC018
FM181800 36005KT P6SM VCSH OVC022
FM190200 35003KT 5SM -RA BR OVC015
FM190600 VRB02KT 2SM -RASN BR OVC009

Example: see airport list